KFTY/FTY METAR and TAF weather

Enter ICAO airport designator
Station Type Date Time Source
KFTY METAR 2022/05/24 11:53 UTC NOAA

KFTY 241153Z 00000KT 10SM SCT008 20/18 A3009 RMK AO2 SLP180 70024 T02000183 10200 20183 53014


Station Type Date Time Source
KFTY Decoded METAR 2022/05/24 11:53 UTC NOAA

ATLANTA FULTON COUNTY AIRPORT , GA, United States (KFTY) 33-47N 84-31W 263M
May 24, 2022 - 07:53 AM EDT / 2022.05.24 1153 UTC
Wind: Calm:0
Visibility: 10 mile(s):0
Sky conditions: partly cloudy
Temperature: 68.0 F (20.0 C)
Dew Point: 64.9 F (18.3 C)
Relative Humidity: 89%
Pressure (altimeter): 30.09 in. Hg (1018 hPa)
Pressure tendency: 0.04 inches (1.4 hPa) higher than three hours ago
ob: KFTY 241153Z 00000KT 10SM SCT008 20/18 A3009 RMK AO2 SLP180 70024 T02000183 10200 20183 53014
cycle: 12

Station Type Date Time Source
KFTY TAF 2022/05/24 12:42 UTC NOAA

TAF KFTY 241141Z 2412/2512 00000KT P6SM SCT006 BKN120 OVC250
TEMPO 2412/2413 BKN005
FM241400 00000KT P6SM FEW012 BKN020 BKN120
FM241600 25004KT P6SM VCSH BKN040 PROB30 2421/2502 4SM TSRA BR OVC035CB
FM250500 10010KT P6SM SCT009 BKN015
FM250900 10011KT P6SM BKN009

Example: see airport list